sensor_id;sensor_type;location;lat;lon;timestamp;P1;durP1;ratioP1;P2;durP2;ratioP2
6288;SDS011;3177;49.880;8.836;2022-07-18T00:00:16;2.00;;;1.50;;
6288;SDS011;3177;49.880;8.836;2022-07-18T00:02:43;1.73;;;1.40;;
6288;SDS011;3177;49.880;8.836;2022-07-18T00:05:10;4.10;;;1.17;;
6288;SDS011;3177;49.880;8.836;2022-07-18T00:07:37;1.33;;;1.23;;
6288;SDS011;3177;49.880;8.836;2022-07-18T00:10:06;8.57;;;1.27;;
6288;SDS011;3177;49.880;8.836;2022-07-18T00:12:33;1.63;;;1.20;;
6288;SDS011;3177;49.880;8.836;2022-07-18T00:15:00;2.03;;;1.20;;
6288;SDS011;3177;49.880;8.836;2022-07-18T00:17:27;2.03;;;1.20;;
6288;SDS011;3177;49.880;8.836;2022-07-18T00:19:54;1.63;;;1.20;;
6288;SDS011;3177;49.880;8.836;2022-07-18T00:22:21;2.40;;;1.50;;
6288;SDS011;3177;49.880;8.836;2022-07-18T00:24:50;3.50;;;1.20;;
6288;SDS011;3177;49.880;8.836;2022-07-18T00:27:18;2.97;;;1.53;;
6288;SDS011;3177;49.880;8.836;2022-07-18T00:29:45;1.17;;;1.10;;
6288;SDS011;3177;49.880;8.836;2022-07-18T00:32:12;1.73;;;1.30;;
6288;SDS011;3177;49.880;8.836;2022-07-18T00:34:39;2.47;;;1.37;;
6288;SDS011;3177;49.880;8.836;2022-07-18T00:37:06;2.83;;;1.30;;
6288;SDS011;3177;49.880;8.836;2022-07-18T00:39:34;1.23;;;1.13;;
6288;SDS011;3177;49.880;8.836;2022-07-18T00:42:01;1.90;;;1.40;;
6288;SDS011;3177;49.880;8.836;2022-07-18T00:44:29;2.63;;;1.83;;
6288;SDS011;3177;49.880;8.836;2022-07-18T00:46:57;6.30;;;1.20;;
6288;SDS011;3177;49.880;8.836;2022-07-18T00:49:24;5.13;;;1.50;;
6288;SDS011;3177;49.880;8.836;2022-07-18T00:51:51;4.10;;;1.77;;
6288;SDS011;3177;49.880;8.836;2022-07-18T00:54:19;1.33;;;1.23;;
6288;SDS011;3177;49.880;8.836;2022-07-18T00:56:46;5.53;;;1.57;;
6288;SDS011;3177;49.880;8.836;2022-07-18T00:59:14;2.67;;;1.40;;
6288;SDS011;3177;49.880;8.836;2022-07-18T01:01:43;2.37;;;1.43;;
6288;SDS011;3177;49.880;8.836;2022-07-18T01:04:11;3.83;;;1.57;;
6288;SDS011;3177;49.880;8.836;2022-07-18T01:06:39;4.53;;;1.70;;
6288;SDS011;3177;49.880;8.836;2022-07-18T01:09:06;2.00;;;1.90;;
6288;SDS011;3177;49.880;8.836;2022-07-18T01:11:34;4.20;;;1.57;;
6288;SDS011;3177;49.880;8.836;2022-07-18T01:14:01;2.37;;;1.30;;
6288;SDS011;3177;49.880;8.836;2022-07-18T01:16:29;1.67;;;1.40;;
6288;SDS011;3177;49.880;8.836;2022-07-18T01:18:57;1.20;;;1.20;;
6288;SDS011;3177;49.880;8.836;2022-07-18T01:21:25;3.17;;;2.23;;
6288;SDS011;3177;49.880;8.836;2022-07-18T01:23:52;1.50;;;1.40;;
6288;SDS011;3177;49.880;8.836;2022-07-18T01:26:19;1.60;;;1.50;;
6288;SDS011;3177;49.880;8.836;2022-07-18T01:28:47;3.00;;;1.73;;
6288;SDS011;3177;49.880;8.836;2022-07-18T01:31:14;1.77;;;1.40;;
6288;SDS011;3177;49.880;8.836;2022-07-18T01:33:41;1.97;;;1.40;;
6288;SDS011;3177;49.880;8.836;2022-07-18T01:36:08;1.00;;;1.00;;
6288;SDS011;3177;49.880;8.836;2022-07-18T01:38:36;3.60;;;1.47;;
6288;SDS011;3177;49.880;8.836;2022-07-18T01:41:04;1.50;;;1.40;;
6288;SDS011;3177;49.880;8.836;2022-07-18T01:43:32;3.57;;;1.60;;
6288;SDS011;3177;49.880;8.836;2022-07-18T01:46:02;1.37;;;1.37;;
6288;SDS011;3177;49.880;8.836;2022-07-18T01:48:30;1.50;;;1.40;;
6288;SDS011;3177;49.880;8.836;2022-07-18T01:50:57;2.70;;;1.50;;
6288;SDS011;3177;49.880;8.836;2022-07-18T01:53:24;4.13;;;1.50;;
6288;SDS011;3177;49.880;8.836;2022-07-18T01:55:52;3.37;;;1.40;;
6288;SDS011;3177;49.880;8.836;2022-07-18T01:58:19;3.23;;;1.53;;
6288;SDS011;3177;49.880;8.836;2022-07-18T02:00:47;3.60;;;1.60;;
6288;SDS011;3177;49.880;8.836;2022-07-18T02:03:14;6.27;;;1.97;;
6288;SDS011;3177;49.880;8.836;2022-07-18T02:05:42;3.90;;;1.50;;
6288;SDS011;3177;49.880;8.836;2022-07-18T02:08:09;2.83;;;1.50;;
6288;SDS011;3177;49.880;8.836;2022-07-18T02:10:36;3.03;;;1.47;;
6288;SDS011;3177;49.880;8.836;2022-07-18T02:13:04;1.87;;;1.77;;
6288;SDS011;3177;49.880;8.836;2022-07-18T02:15:31;3.33;;;1.63;;
6288;SDS011;3177;49.880;8.836;2022-07-18T02:17:58;3.30;;;1.73;;
6288;SDS011;3177;49.880;8.836;2022-07-18T02:20:25;1.40;;;1.40;;
6288;SDS011;3177;49.880;8.836;2022-07-18T02:22:52;3.60;;;1.50;;
6288;SDS011;3177;49.880;8.836;2022-07-18T02:25:19;1.43;;;1.33;;
6288;SDS011;3177;49.880;8.836;2022-07-18T02:27:47;2.40;;;1.27;;
6288;SDS011;3177;49.880;8.836;2022-07-18T02:30:15;1.30;;;1.20;;
6288;SDS011;3177;49.880;8.836;2022-07-18T02:32:42;3.13;;;1.63;;
6288;SDS011;3177;49.880;8.836;2022-07-18T02:35:09;2.43;;;1.57;;
6288;SDS011;3177;49.880;8.836;2022-07-18T02:37:37;2.40;;;1.77;;
6288;SDS011;3177;49.880;8.836;2022-07-18T02:40:06;1.50;;;1.37;;
6288;SDS011;3177;49.880;8.836;2022-07-18T02:42:33;1.63;;;1.53;;
6288;SDS011;3177;49.880;8.836;2022-07-18T02:45:01;1.70;;;1.60;;
6288;SDS011;3177;49.880;8.836;2022-07-18T02:47:37;3.30;;;1.30;;
6288;SDS011;3177;49.880;8.836;2022-07-18T02:50:04;1.70;;;1.50;;
6288;SDS011;3177;49.880;8.836;2022-07-18T02:52:31;9.77;;;1.60;;
6288;SDS011;3177;49.880;8.836;2022-07-18T02:54:58;3.97;;;1.60;;
6288;SDS011;3177;49.880;8.836;2022-07-18T02:57:26;1.60;;;1.40;;
6288;SDS011;3177;49.880;8.836;2022-07-18T02:59:53;1.90;;;1.33;;
6288;SDS011;3177;49.880;8.836;2022-07-18T03:02:20;2.57;;;1.40;;
6288;SDS011;3177;49.880;8.836;2022-07-18T03:04:48;2.70;;;1.70;;
6288;SDS011;3177;49.880;8.836;2022-07-18T03:07:15;1.87;;;1.53;;
6288;SDS011;3177;49.880;8.836;2022-07-18T03:09:43;1.30;;;1.20;;
6288;SDS011;3177;49.880;8.836;2022-07-18T03:12:10;4.37;;;1.50;;
6288;SDS011;3177;49.880;8.836;2022-07-18T03:14:37;2.73;;;1.53;;
6288;SDS011;3177;49.880;8.836;2022-07-18T03:17:04;1.40;;;1.30;;
6288;SDS011;3177;49.880;8.836;2022-07-18T03:19:31;2.33;;;1.50;;
6288;SDS011;3177;49.880;8.836;2022-07-18T03:22:00;1.33;;;1.23;;
6288;SDS011;3177;49.880;8.836;2022-07-18T03:24:27;1.57;;;1.47;;
6288;SDS011;3177;49.880;8.836;2022-07-18T03:26:54;2.80;;;1.50;;
6288;SDS011;3177;49.880;8.836;2022-07-18T03:29:21;1.53;;;1.43;;
6288;SDS011;3177;49.880;8.836;2022-07-18T03:31:48;1.30;;;1.20;;
6288;SDS011;3177;49.880;8.836;2022-07-18T03:34:16;1.77;;;1.40;;
6288;SDS011;3177;49.880;8.836;2022-07-18T03:36:43;3.10;;;1.70;;
6288;SDS011;3177;49.880;8.836;2022-07-18T03:39:11;8.50;;;1.67;;
6288;SDS011;3177;49.880;8.836;2022-07-18T03:41:38;8.83;;;1.57;;
6288;SDS011;3177;49.880;8.836;2022-07-18T03:44:06;7.50;;;1.80;;
6288;SDS011;3177;49.880;8.836;2022-07-18T03:46:33;2.00;;;1.50;;
6288;SDS011;3177;49.880;8.836;2022-07-18T03:49:00;1.40;;;1.27;;
6288;SDS011;3177;49.880;8.836;2022-07-18T03:51:27;1.40;;;1.30;;
6288;SDS011;3177;49.880;8.836;2022-07-18T03:53:54;1.57;;;1.47;;
6288;SDS011;3177;49.880;8.836;2022-07-18T03:56:23;5.47;;;1.70;;
6288;SDS011;3177;49.880;8.836;2022-07-18T03:58:50;1.50;;;1.40;;
6288;SDS011;3177;49.880;8.836;2022-07-18T04:01:17;3.00;;;1.40;;
6288;SDS011;3177;49.880;8.836;2022-07-18T04:03:44;3.43;;;1.87;;
6288;SDS011;3177;49.880;8.836;2022-07-18T04:06:11;1.67;;;1.57;;
6288;SDS011;3177;49.880;8.836;2022-07-18T04:08:38;3.07;;;1.77;;
6288;SDS011;3177;49.880;8.836;2022-07-18T04:11:05;2.13;;;1.80;;
6288;SDS011;3177;49.880;8.836;2022-07-18T04:16:02;1.80;;;1.70;;
6288;SDS011;3177;49.880;8.836;2022-07-18T04:18:29;7.03;;;1.73;;
6288;SDS011;3177;49.880;8.836;2022-07-18T04:20:56;10.90;;;1.80;;
6288;SDS011;3177;49.880;8.836;2022-07-18T04:23:23;2.67;;;1.50;;
6288;SDS011;3177;49.880;8.836;2022-07-18T04:25:50;3.63;;;1.60;;
6288;SDS011;3177;49.880;8.836;2022-07-18T04:28:17;4.90;;;1.80;;
6288;SDS011;3177;49.880;8.836;2022-07-18T04:30:44;3.73;;;1.77;;
6288;SDS011;3177;49.880;8.836;2022-07-18T04:33:13;4.37;;;1.77;;
6288;SDS011;3177;49.880;8.836;2022-07-18T04:35:40;8.47;;;3.03;;
6288;SDS011;3177;49.880;8.836;2022-07-18T04:38:08;8.10;;;2.03;;
6288;SDS011;3177;49.880;8.836;2022-07-18T04:40:35;7.80;;;2.20;;
6288;SDS011;3177;49.880;8.836;2022-07-18T04:43:02;11.80;;;2.17;;
6288;SDS011;3177;49.880;8.836;2022-07-18T04:45:30;6.10;;;1.80;;
6288;SDS011;3177;49.880;8.836;2022-07-18T04:47:57;5.40;;;1.87;;
6288;SDS011;3177;49.880;8.836;2022-07-18T04:50:25;4.13;;;1.80;;
6288;SDS011;3177;49.880;8.836;2022-07-18T04:52:55;8.70;;;1.87;;
6288;SDS011;3177;49.880;8.836;2022-07-18T04:55:22;12.77;;;2.40;;
6288;SDS011;3177;49.880;8.836;2022-07-18T04:57:50;7.60;;;2.07;;
6288;SDS011;3177;49.880;8.836;2022-07-18T05:00:18;7.53;;;2.30;;
6288;SDS011;3177;49.880;8.836;2022-07-18T05:02:46;14.57;;;2.33;;
6288;SDS011;3177;49.880;8.836;2022-07-18T05:05:14;6.87;;;1.90;;
6288;SDS011;3177;49.880;8.836;2022-07-18T05:07:43;3.80;;;1.40;;
6288;SDS011;3177;49.880;8.836;2022-07-18T05:10:12;2.97;;;1.80;;
6288;SDS011;3177;49.880;8.836;2022-07-18T05:12:41;1.93;;;1.77;;
6288;SDS011;3177;49.880;8.836;2022-07-18T05:15:09;3.37;;;2.10;;
6288;SDS011;3177;49.880;8.836;2022-07-18T05:17:36;3.27;;;1.73;;
6288;SDS011;3177;49.880;8.836;2022-07-18T05:20:04;2.37;;;2.03;;
6288;SDS011;3177;49.880;8.836;2022-07-18T05:22:31;1.80;;;1.70;;
6288;SDS011;3177;49.880;8.836;2022-07-18T05:25:00;3.00;;;2.10;;
6288;SDS011;3177;49.880;8.836;2022-07-18T05:27:27;2.60;;;2.10;;
6288;SDS011;3177;49.880;8.836;2022-07-18T05:29:54;2.27;;;1.97;;
6288;SDS011;3177;49.880;8.836;2022-07-18T05:32:21;3.67;;;2.30;;
6288;SDS011;3177;49.880;8.836;2022-07-18T05:34:49;3.37;;;2.20;;
6288;SDS011;3177;49.880;8.836;2022-07-18T05:37:16;3.70;;;2.20;;
6288;SDS011;3177;49.880;8.836;2022-07-18T05:39:43;4.60;;;2.43;;
6288;SDS011;3177;49.880;8.836;2022-07-18T05:42:11;4.20;;;2.20;;
6288;SDS011;3177;49.880;8.836;2022-07-18T05:44:38;2.30;;;2.10;;
6288;SDS011;3177;49.880;8.836;2022-07-18T05:47:05;2.33;;;2.13;;
6288;SDS011;3177;49.880;8.836;2022-07-18T05:49:32;2.63;;;2.13;;
6288;SDS011;3177;49.880;8.836;2022-07-18T05:51:59;2.50;;;2.00;;
6288;SDS011;3177;49.880;8.836;2022-07-18T05:54:26;3.03;;;2.27;;
6288;SDS011;3177;49.880;8.836;2022-07-18T05:56:53;2.73;;;2.20;;
6288;SDS011;3177;49.880;8.836;2022-07-18T05:59:22;2.40;;;2.20;;
6288;SDS011;3177;49.880;8.836;2022-07-18T06:01:49;6.00;;;2.37;;
6288;SDS011;3177;49.880;8.836;2022-07-18T06:04:16;3.83;;;2.27;;
6288;SDS011;3177;49.880;8.836;2022-07-18T06:06:43;3.40;;;2.07;;
6288;SDS011;3177;49.880;8.836;2022-07-18T06:09:10;3.67;;;2.10;;
6288;SDS011;3177;49.880;8.836;2022-07-18T06:11:38;3.43;;;2.20;;
6288;SDS011;3177;49.880;8.836;2022-07-18T06:14:05;3.37;;;2.47;;
6288;SDS011;3177;49.880;8.836;2022-07-18T06:16:33;4.07;;;2.30;;
6288;SDS011;3177;49.880;8.836;2022-07-18T06:19:01;3.67;;;2.80;;
6288;SDS011;3177;49.880;8.836;2022-07-18T06:21:29;3.73;;;2.30;;
6288;SDS011;3177;49.880;8.836;2022-07-18T06:23:56;3.03;;;2.40;;
6288;SDS011;3177;49.880;8.836;2022-07-18T06:26:23;6.80;;;2.80;;
6288;SDS011;3177;49.880;8.836;2022-07-18T06:28:50;2.40;;;2.20;;
6288;SDS011;3177;49.880;8.836;2022-07-18T06:31:17;5.60;;;2.27;;
6288;SDS011;3177;49.880;8.836;2022-07-18T06:33:46;2.97;;;2.13;;
6288;SDS011;3177;49.880;8.836;2022-07-18T06:36:13;7.80;;;2.10;;
6288;SDS011;3177;49.880;8.836;2022-07-18T06:38:40;6.03;;;2.27;;
6288;SDS011;3177;49.880;8.836;2022-07-18T06:41:07;2.97;;;2.10;;
6288;SDS011;3177;49.880;8.836;2022-07-18T06:43:35;2.28;;;1.60;;
6288;SDS011;3177;49.880;8.836;2022-07-18T06:46:03;2.80;;;1.60;;
6288;SDS011;3177;49.880;8.836;2022-07-18T06:48:30;3.92;;;2.10;;
6288;SDS011;3177;49.880;8.836;2022-07-18T06:51:01;4.68;;;2.05;;
6288;SDS011;3177;49.880;8.836;2022-07-18T06:53:29;3.90;;;1.65;;
6288;SDS011;3177;49.880;8.836;2022-07-18T06:55:56;6.22;;;1.92;;
6288;SDS011;3177;49.880;8.836;2022-07-18T06:58:23;2.45;;;1.70;;
6288;SDS011;3177;49.880;8.836;2022-07-18T07:00:50;5.00;;;1.70;;
6288;SDS011;3177;49.880;8.836;2022-07-18T07:03:17;1.90;;;1.73;;
6288;SDS011;3177;49.880;8.836;2022-07-18T07:05:44;3.90;;;1.70;;
6288;SDS011;3177;49.880;8.836;2022-07-18T07:08:13;1.60;;;1.50;;
6288;SDS011;3177;49.880;8.836;2022-07-18T07:10:40;3.05;;;1.65;;
6288;SDS011;3177;49.880;8.836;2022-07-18T07:13:07;2.05;;;1.25;;
6288;SDS011;3177;49.880;8.836;2022-07-18T07:15:34;3.22;;;1.65;;
6288;SDS011;3177;49.880;8.836;2022-07-18T07:18:01;1.52;;;1.42;;
6288;SDS011;3177;49.880;8.836;2022-07-18T07:20:28;2.40;;;1.40;;
6288;SDS011;3177;49.880;8.836;2022-07-18T07:22:56;3.53;;;1.45;;
6288;SDS011;3177;49.880;8.836;2022-07-18T07:25:25;2.25;;;1.58;;
6288;SDS011;3177;49.880;8.836;2022-07-18T07:27:52;2.53;;;1.60;;
6288;SDS011;3177;49.880;8.836;2022-07-18T07:30:20;2.22;;;1.40;;
6288;SDS011;3177;49.880;8.836;2022-07-18T07:32:47;2.03;;;1.42;;
6288;SDS011;3177;49.880;8.836;2022-07-18T07:35:16;2.53;;;1.40;;
6288;SDS011;3177;49.880;8.836;2022-07-18T07:37:44;2.63;;;1.52;;
6288;SDS011;3177;49.880;8.836;2022-07-18T07:40:12;3.60;;;1.45;;
6288;SDS011;3177;49.880;8.836;2022-07-18T07:42:41;3.85;;;1.50;;
6288;SDS011;3177;49.880;8.836;2022-07-18T07:45:08;3.15;;;1.67;;
6288;SDS011;3177;49.880;8.836;2022-07-18T07:47:36;2.33;;;1.55;;
6288;SDS011;3177;49.880;8.836;2022-07-18T07:50:04;2.63;;;1.58;;
6288;SDS011;3177;49.880;8.836;2022-07-18T07:52:31;2.85;;;1.40;;
6288;SDS011;3177;49.880;8.836;2022-07-18T07:54:58;2.75;;;1.20;;
6288;SDS011;3177;49.880;8.836;2022-07-18T07:57:25;5.22;;;1.35;;
6288;SDS011;3177;49.880;8.836;2022-07-18T07:59:54;11.73;;;1.40;;
6288;SDS011;3177;49.880;8.836;2022-07-18T08:02:21;5.13;;;1.55;;
6288;SDS011;3177;49.880;8.836;2022-07-18T08:04:48;1.45;;;1.35;;
6288;SDS011;3177;49.880;8.836;2022-07-18T08:07:16;4.38;;;1.55;;
6288;SDS011;3177;49.880;8.836;2022-07-18T08:09:45;1.40;;;1.20;;
6288;SDS011;3177;49.880;8.836;2022-07-18T08:12:12;1.40;;;1.20;;
6288;SDS011;3177;49.880;8.836;2022-07-18T08:14:40;2.45;;;1.10;;
6288;SDS011;3177;49.880;8.836;2022-07-18T08:17:08;1.50;;;1.40;;
6288;SDS011;3177;49.880;8.836;2022-07-18T08:19:36;4.30;;;1.42;;
6288;SDS011;3177;49.880;8.836;2022-07-18T08:22:03;1.77;;;1.23;;
6288;SDS011;3177;49.880;8.836;2022-07-18T08:24:31;3.55;;;1.35;;
6288;SDS011;3177;49.880;8.836;2022-07-18T08:26:58;2.03;;;1.10;;
6288;SDS011;3177;49.880;8.836;2022-07-18T08:29:25;1.60;;;1.00;;
6288;SDS011;3177;49.880;8.836;2022-07-18T08:31:52;1.98;;;1.10;;
6288;SDS011;3177;49.880;8.836;2022-07-18T08:34:20;3.30;;;1.08;;
6288;SDS011;3177;49.880;8.836;2022-07-18T08:36:47;2.80;;;1.40;;
6288;SDS011;3177;49.880;8.836;2022-07-18T08:39:15;1.33;;;1.05;;
6288;SDS011;3177;49.880;8.836;2022-07-18T08:41:42;2.60;;;1.50;;
6288;SDS011;3177;49.880;8.836;2022-07-18T08:44:11;2.25;;;1.13;;
6288;SDS011;3177;49.880;8.836;2022-07-18T08:46:39;3.10;;;1.08;;
6288;SDS011;3177;49.880;8.836;2022-07-18T08:49:06;1.23;;;1.13;;
6288;SDS011;3177;49.880;8.836;2022-07-18T08:51:35;3.80;;;1.30;;
6288;SDS011;3177;49.880;8.836;2022-07-18T08:54:03;1.40;;;1.30;;
6288;SDS011;3177;49.880;8.836;2022-07-18T08:56:30;2.72;;;1.20;;
6288;SDS011;3177;49.880;8.836;2022-07-18T08:58:57;2.83;;;1.15;;
6288;SDS011;3177;49.880;8.836;2022-07-18T09:01:27;5.28;;;1.42;;
6288;SDS011;3177;49.880;8.836;2022-07-18T09:03:55;2.00;;;1.23;;
6288;SDS011;3177;49.880;8.836;2022-07-18T09:06:44;1.05;;;1.00;;
6288;SDS011;3177;49.880;8.836;2022-07-18T09:09:12;2.55;;;1.15;;
6288;SDS011;3177;49.880;8.836;2022-07-18T09:11:49;2.00;;;1.30;;
6288;SDS011;3177;49.880;8.836;2022-07-18T09:17:04;1.52;;;1.00;;
6288;SDS011;3177;49.880;8.836;2022-07-18T09:19:32;2.97;;;1.13;;
6288;SDS011;3177;49.880;8.836;2022-07-18T09:22:13;0.98;;;0.93;;
6288;SDS011;3177;49.880;8.836;2022-07-18T09:24:51;3.13;;;0.90;;
6288;SDS011;3177;49.880;8.836;2022-07-18T09:27:23;2.75;;;1.00;;
6288;SDS011;3177;49.880;8.836;2022-07-18T09:32:41;1.10;;;1.00;;
6288;SDS011;3177;49.880;8.836;2022-07-18T09:35:10;2.35;;;0.60;;
6288;SDS011;3177;49.880;8.836;2022-07-18T09:37:39;0.63;;;0.60;;
6288;SDS011;3177;49.880;8.836;2022-07-18T09:40:15;3.45;;;0.77;;
6288;SDS011;3177;49.880;8.836;2022-07-18T09:42:43;2.20;;;0.88;;
6288;SDS011;3177;49.880;8.836;2022-07-18T09:45:10;2.35;;;0.77;;
6288;SDS011;3177;49.880;8.836;2022-07-18T09:47:50;1.70;;;0.80;;
6288;SDS011;3177;49.880;8.836;2022-07-18T09:50:22;2.50;;;1.08;;
6288;SDS011;3177;49.880;8.836;2022-07-18T09:55:44;1.27;;;0.70;;
6288;SDS011;3177;49.880;8.836;2022-07-18T09:58:12;2.92;;;0.80;;
6288;SDS011;3177;49.880;8.836;2022-07-18T10:00:40;1.13;;;0.90;;
6288;SDS011;3177;49.880;8.836;2022-07-18T10:03:08;0.80;;;0.80;;
6288;SDS011;3177;49.880;8.836;2022-07-18T10:05:36;1.35;;;1.15;;
6288;SDS011;3177;49.880;8.836;2022-07-18T10:08:04;1.13;;;0.93;;
6288;SDS011;3177;49.880;8.836;2022-07-18T10:10:31;0.80;;;0.80;;
6288;SDS011;3177;49.880;8.836;2022-07-18T10:13:01;0.90;;;0.70;;
6288;SDS011;3177;49.880;8.836;2022-07-18T10:15:29;1.35;;;1.08;;
6288;SDS011;3177;49.880;8.836;2022-07-18T10:17:56;2.17;;;1.00;;
6288;SDS011;3177;49.880;8.836;2022-07-18T10:20:27;0.90;;;0.88;;
6288;SDS011;3177;49.880;8.836;2022-07-18T10:22:55;2.40;;;1.10;;
6288;SDS011;3177;49.880;8.836;2022-07-18T10:25:23;1.10;;;0.98;;
6288;SDS011;3177;49.880;8.836;2022-07-18T10:27:52;0.80;;;0.80;;
6288;SDS011;3177;49.880;8.836;2022-07-18T10:30:31;1.02;;;0.93;;
6288;SDS011;3177;49.880;8.836;2022-07-18T10:32:58;2.28;;;0.90;;
6288;SDS011;3177;49.880;8.836;2022-07-18T10:38:21;1.95;;;1.00;;
6288;SDS011;3177;49.880;8.836;2022-07-18T10:41:00;0.60;;;0.60;;
6288;SDS011;3177;49.880;8.836;2022-07-18T10:43:44;1.00;;;0.80;;
6288;SDS011;3177;49.880;8.836;2022-07-18T10:46:24;0.93;;;0.70;;
6288;SDS011;3177;49.880;8.836;2022-07-18T22:20:32;6.03;;;2.13;;
6288;SDS011;3177;49.880;8.836;2022-07-18T22:23:00;6.63;;;1.95;;
6288;SDS011;3177;49.880;8.836;2022-07-18T22:25:27;5.40;;;2.20;;
6288;SDS011;3177;49.880;8.836;2022-07-18T22:27:56;12.57;;;1.95;;
6288;SDS011;3177;49.880;8.836;2022-07-18T22:30:23;5.75;;;1.77;;
6288;SDS011;3177;49.880;8.836;2022-07-18T22:32:50;5.70;;;2.13;;
6288;SDS011;3177;49.880;8.836;2022-07-18T22:35:18;5.70;;;2.13;;
6288;SDS011;3177;49.880;8.836;2022-07-18T22:37:46;6.90;;;2.05;;
6288;SDS011;3177;49.880;8.836;2022-07-18T22:40:14;4.93;;;2.00;;
6288;SDS011;3177;49.880;8.836;2022-07-18T22:42:41;11.38;;;2.17;;
6288;SDS011;3177;49.880;8.836;2022-07-18T22:45:14;2.42;;;1.90;;
6288;SDS011;3177;49.880;8.836;2022-07-18T22:47:41;4.95;;;1.95;;
6288;SDS011;3177;49.880;8.836;2022-07-18T22:50:09;5.63;;;2.05;;
6288;SDS011;3177;49.880;8.836;2022-07-18T22:52:36;2.53;;;1.88;;
6288;SDS011;3177;49.880;8.836;2022-07-18T22:55:05;4.75;;;2.30;;
6288;SDS011;3177;49.880;8.836;2022-07-18T22:57:32;6.07;;;2.50;;
6288;SDS011;3177;49.880;8.836;2022-07-18T22:59:59;8.98;;;2.20;;
6288;SDS011;3177;49.880;8.836;2022-07-18T23:02:27;7.57;;;2.03;;
6288;SDS011;3177;49.880;8.836;2022-07-18T23:04:54;3.67;;;2.33;;
6288;SDS011;3177;49.880;8.836;2022-07-18T23:07:23;3.25;;;1.77;;
6288;SDS011;3177;49.880;8.836;2022-07-18T23:09:50;5.32;;;2.03;;
6288;SDS011;3177;49.880;8.836;2022-07-18T23:12:18;5.07;;;2.22;;
6288;SDS011;3177;49.880;8.836;2022-07-18T23:14:49;4.57;;;2.15;;
6288;SDS011;3177;49.880;8.836;2022-07-18T23:17:16;5.35;;;2.42;;
6288;SDS011;3177;49.880;8.836;2022-07-18T23:19:43;3.38;;;1.67;;
6288;SDS011;3177;49.880;8.836;2022-07-18T23:22:13;7.88;;;2.05;;
6288;SDS011;3177;49.880;8.836;2022-07-18T23:24:40;4.30;;;1.83;;
6288;SDS011;3177;49.880;8.836;2022-07-18T23:27:07;7.45;;;2.22;;
6288;SDS011;3177;49.880;8.836;2022-07-18T23:29:38;3.50;;;2.20;;
6288;SDS011;3177;49.880;8.836;2022-07-18T23:32:06;5.47;;;2.03;;
6288;SDS011;3177;49.880;8.836;2022-07-18T23:34:34;2.75;;;1.88;;
6288;SDS011;3177;49.880;8.836;2022-07-18T23:37:02;8.00;;;2.03;;
6288;SDS011;3177;49.880;8.836;2022-07-18T23:39:31;4.82;;;2.00;;
6288;SDS011;3177;49.880;8.836;2022-07-18T23:41:58;9.15;;;2.10;;
6288;SDS011;3177;49.880;8.836;2022-07-18T23:44:25;9.48;;;2.05;;
6288;SDS011;3177;49.880;8.836;2022-07-18T23:46:54;3.95;;;2.70;;
6288;SDS011;3177;49.880;8.836;2022-07-18T23:49:24;2.72;;;2.13;;
6288;SDS011;3177;49.880;8.836;2022-07-18T23:51:51;4.68;;;1.90;;
6288;SDS011;3177;49.880;8.836;2022-07-18T23:54:18;6.45;;;2.17;;
6288;SDS011;3177;49.880;8.836;2022-07-18T23:56:45;3.15;;;2.10;;
6288;SDS011;3177;49.880;8.836;2022-07-18T23:59:12;3.50;;;2.08;;
